createdAt,value
2017-11-01T10:41:26.813Z,18.10
2017-11-01T10:43:55.704Z,17.40
2017-11-01T10:46:23.581Z,16.30
2017-11-01T10:48:52.386Z,15.20
2017-11-01T10:51:20.611Z,15.50
2017-11-01T10:53:48.418Z,15.30
2017-11-01T10:56:16.285Z,14.70
2017-11-01T10:58:43.910Z,14.60
2017-11-01T11:01:11.544Z,14.30
2017-11-01T11:03:39.590Z,14.20
2017-11-01T11:06:07.215Z,13.80
2017-11-01T11:08:34.855Z,13.90
2017-11-01T11:11:02.465Z,13.90
2017-11-01T11:13:30.937Z,13.40
2017-11-01T11:15:58.978Z,13.30
2017-11-01T11:18:26.546Z,13.50
2017-11-01T11:20:54.181Z,13.50
2017-11-01T11:23:21.754Z,14.00
2017-11-01T11:25:49.435Z,14.40
2017-11-01T11:28:17.015Z,14.80
2017-11-01T11:30:46.238Z,15.30
2017-11-01T11:33:13.819Z,15.90
2017-11-01T11:35:41.478Z,15.80
2017-11-01T11:38:10.058Z,15.70
2017-11-01T11:40:37.702Z,15.90
2017-11-01T11:43:06.098Z,16.30
2017-11-01T11:45:33.677Z,16.80
2017-11-01T11:48:01.315Z,16.60
2017-11-01T11:50:28.929Z,16.60
2017-11-01T11:52:56.762Z,16.40
2017-11-01T11:55:24.351Z,16.20
2017-11-01T11:57:52.203Z,16.60
2017-11-01T12:00:19.824Z,16.80
2017-11-01T12:02:47.437Z,17.30
2017-11-01T12:05:15.405Z,17.70
2017-11-01T12:07:43.127Z,18.10
2017-11-01T12:10:10.774Z,18.30
2017-11-01T12:12:38.390Z,18.30
2017-11-01T12:15:06.730Z,18.20
2017-11-01T12:17:35.192Z,18.40
2017-11-01T12:20:03.618Z,18.60
2017-11-01T12:22:31.269Z,18.70
2017-11-01T12:24:58.846Z,18.80
2017-11-01T12:27:26.732Z,18.70
2017-11-01T12:29:54.316Z,18.60
2017-11-01T12:32:21.910Z,18.60
2017-11-01T12:34:49.535Z,18.60
2017-11-01T12:37:17.112Z,18.60
2017-11-01T12:39:44.804Z,18.50
2017-11-01T12:42:13.413Z,18.40
2017-11-01T12:44:41.022Z,18.60
2017-11-01T12:47:08.607Z,18.70
2017-11-01T12:49:36.234Z,18.70
2017-11-01T12:52:03.822Z,18.80
2017-11-01T12:54:31.479Z,18.80
2017-11-01T12:56:59.073Z,18.20
2017-11-01T12:59:26.730Z,17.90
2017-11-01T13:01:54.309Z,18.10
2017-11-01T13:04:21.929Z,18.30
2017-11-01T13:06:49.511Z,18.20
2017-11-01T13:09:17.190Z,17.90
2017-11-01T13:11:44.874Z,17.70
2017-11-01T13:14:12.534Z,17.80
2017-11-01T13:16:40.126Z,17.40
2017-11-01T13:19:08.138Z,17.10
2017-11-01T13:21:35.953Z,17.00
2017-11-01T13:24:03.562Z,17.00
2017-11-01T13:26:31.246Z,17.30
2017-11-01T13:28:58.887Z,17.30
2017-11-01T13:31:26.524Z,17.20
2017-11-01T13:33:54.105Z,17.10
2017-11-01T13:36:21.714Z,17.10
2017-11-01T13:38:49.339Z,17.00
2017-11-01T13:41:16.982Z,16.90
2017-11-01T13:43:44.566Z,16.70
2017-11-01T13:46:12.204Z,16.10
2017-11-01T13:48:39.781Z,15.80
2017-11-01T13:51:07.425Z,15.70
2017-11-01T13:53:34.998Z,15.40
2017-11-01T13:56:03.922Z,15.40
2017-11-01T13:58:31.507Z,15.70
2017-11-01T14:00:59.139Z,15.90
2017-11-01T14:03:26.728Z,15.70
2017-11-01T14:05:54.363Z,15.80
2017-11-01T14:08:22.326Z,15.90
2017-11-01T14:10:49.949Z,16.30
2017-11-01T14:13:17.542Z,16.80
2017-11-01T14:15:45.173Z,17.20
2017-11-01T14:18:12.814Z,17.40
2017-11-01T14:20:40.785Z,17.20
2017-11-01T14:23:08.800Z,16.80
2017-11-01T14:25:36.418Z,16.60
2017-11-01T14:28:04.120Z,16.60
2017-11-01T14:30:32.136Z,16.70
2017-11-01T14:33:00.518Z,16.90
2017-11-01T14:35:28.486Z,17.10
2017-11-01T14:37:56.096Z,17.50
2017-11-01T14:40:24.073Z,17.90
2017-11-01T14:42:52.131Z,18.40
2017-11-01T14:45:20.106Z,18.60
2017-11-01T14:47:48.120Z,18.30
2017-11-01T14:50:16.482Z,17.60
2017-11-01T14:52:44.138Z,17.40
2017-11-01T14:55:12.618Z,17.00
2017-11-01T14:57:41.037Z,16.90
2017-11-01T15:00:08.621Z,16.80
2017-11-01T15:02:36.245Z,16.80
2017-11-01T15:05:04.242Z,16.50
2017-11-01T15:07:32.213Z,16.40
2017-11-01T15:10:00.241Z,16.10
2017-11-01T15:12:28.576Z,16.10
2017-11-01T15:14:57.077Z,16.40
2017-11-01T15:17:25.226Z,16.60
2017-11-01T15:19:52.934Z,16.60
2017-11-01T15:22:21.022Z,16.70
2017-11-01T15:24:49.599Z,16.80
2017-11-01T15:27:17.981Z,16.90
2017-11-01T15:29:46.036Z,17.10
2017-11-01T15:32:13.613Z,17.20
2017-11-01T15:34:41.657Z,17.00
2017-11-01T15:37:09.672Z,16.80
2017-11-01T15:39:37.331Z,16.80
2017-11-01T15:42:06.920Z,16.70
2017-11-01T15:44:35.989Z,16.70
2017-11-01T15:47:06.401Z,16.50
2017-11-01T15:49:34.023Z,16.30
2017-11-01T15:54:37.363Z,16.00
2017-11-01T16:04:32.145Z,15.20
2017-11-01T16:14:29.709Z,14.60
2017-11-01T16:19:28.311Z,14.30
2017-11-01T16:21:56.105Z,14.20
2017-11-01T16:24:24.149Z,14.10
2017-11-01T16:26:51.853Z,13.90
2017-11-01T16:41:44.657Z,13.10
2017-11-01T16:44:12.769Z,13.00
2017-11-01T16:46:40.381Z,13.00
2017-11-01T16:49:09.553Z,13.00
2017-11-01T16:51:37.130Z,12.90
2017-11-01T16:54:05.618Z,12.80
2017-11-01T16:56:33.251Z,12.70
2017-11-01T17:01:29.818Z,12.40
2017-11-01T17:06:29.236Z,12.30
2017-11-01T17:11:26.216Z,12.10
2017-11-01T17:13:54.984Z,12.10
2017-11-01T17:16:23.000Z,11.90
2017-11-01T17:21:21.143Z,11.80
2017-11-01T17:28:46.635Z,11.60
2017-11-01T17:31:16.008Z,11.40
2017-11-01T17:33:44.797Z,11.50
2017-11-01T17:36:13.599Z,11.30
2017-11-01T17:38:41.644Z,11.30
2017-11-01T17:43:38.188Z,11.00
2017-11-01T17:48:35.524Z,11.00
2017-11-01T17:53:32.098Z,11.10
2017-11-01T17:58:28.874Z,11.10
2017-11-01T18:03:27.018Z,10.50
2017-11-01T18:05:56.114Z,10.60
2017-11-01T18:08:25.257Z,10.40
2017-11-01T18:10:52.901Z,10.60
2017-11-01T18:13:20.871Z,10.50
2017-11-01T18:20:46.600Z,10.30
2017-11-01T18:23:14.929Z,10.30
2017-11-01T18:25:43.374Z,10.20
2017-11-01T18:30:39.959Z,10.30
2017-11-01T18:33:08.346Z,10.00
2017-11-01T18:35:36.440Z,10.10
2017-11-01T18:38:04.422Z,10.00
2017-11-01T18:40:32.026Z,10.10
2017-11-01T18:45:29.022Z,9.50
2017-11-01T18:47:57.026Z,9.90
2017-11-01T18:50:25.012Z,9.80
2017-11-01T18:55:23.097Z,9.70
2017-11-01T18:57:50.725Z,10.00
2017-11-01T19:00:19.121Z,9.70
2017-11-01T19:02:47.180Z,9.60
2017-11-01T19:10:12.639Z,10.50
2017-11-01T19:12:40.681Z,9.50
2017-11-01T19:17:38.110Z,9.30
2017-11-01T19:20:06.510Z,9.30
2017-11-01T19:22:34.581Z,9.30
2017-11-01T19:25:03.284Z,9.30
2017-11-01T19:27:32.361Z,9.20
2017-11-01T19:30:00.449Z,9.20
2017-11-01T19:32:29.156Z,9.40
2017-11-01T19:37:26.153Z,9.40
2017-11-01T19:39:56.396Z,9.50
2017-11-01T19:47:23.041Z,9.10
2017-11-01T19:49:51.772Z,9.20
2017-11-01T19:52:20.920Z,9.20
2017-11-01T19:57:17.882Z,9.00
2017-11-01T19:59:45.868Z,9.00
2017-11-01T20:04:43.187Z,8.90
2017-11-01T20:07:11.620Z,8.80
2017-11-01T20:09:39.940Z,8.80
2017-11-01T20:14:37.268Z,8.80
2017-11-01T20:17:06.406Z,8.80
2017-11-01T20:19:34.365Z,8.80
2017-11-01T20:24:31.762Z,8.70
2017-11-01T20:27:00.416Z,8.70
2017-11-01T20:29:28.473Z,8.60
2017-11-01T20:34:26.149Z,8.60
2017-11-01T20:36:54.871Z,8.60
2017-11-01T20:44:20.889Z,8.60
2017-11-01T20:49:17.861Z,8.50
2017-11-01T20:51:45.863Z,8.50
2017-11-01T20:56:42.798Z,8.50
2017-11-01T21:01:42.301Z,8.40
2017-11-01T21:04:10.875Z,8.20
2017-11-01T21:06:39.541Z,8.40
2017-11-01T21:11:36.878Z,8.30
2017-11-01T21:16:33.835Z,8.30
2017-11-01T21:21:31.153Z,8.30
2017-11-01T21:24:00.232Z,8.30
2017-11-01T21:26:29.891Z,8.30
2017-11-01T21:28:58.274Z,8.00
2017-11-01T21:33:55.961Z,8.10
2017-11-01T21:36:25.078Z,8.00
2017-11-01T21:46:21.022Z,8.00
2017-11-01T21:53:48.872Z,8.00
2017-11-01T21:58:46.831Z,7.80
2017-11-01T22:03:44.528Z,7.80
2017-11-01T22:06:12.784Z,7.70
2017-11-01T22:11:10.460Z,7.70
2017-11-01T22:13:38.813Z,7.70
2017-11-01T22:16:07.582Z,7.70
2017-11-01T22:18:36.858Z,7.70
2017-11-01T22:23:33.903Z,7.50
2017-11-01T22:26:02.233Z,7.70
2017-11-01T22:28:30.244Z,7.60
2017-11-01T22:35:57.120Z,7.80
2017-11-01T22:43:23.174Z,7.80
2017-11-01T22:45:56.969Z,7.90
2017-11-01T22:55:52.886Z,7.80
2017-11-01T22:58:22.146Z,7.70
2017-11-01T23:00:50.935Z,7.70
2017-11-01T23:05:56.061Z,7.60
2017-11-01T23:08:24.031Z,7.60
2017-11-01T23:10:52.815Z,7.60
2017-11-01T23:15:49.733Z,7.60
2017-11-01T23:18:17.764Z,7.60
2017-11-01T23:20:45.729Z,7.60
2017-11-01T23:23:14.864Z,7.60
2017-11-01T23:25:43.202Z,7.60
2017-11-01T23:28:11.581Z,7.50
2017-11-01T23:30:40.677Z,7.60
2017-11-01T23:33:09.441Z,7.60
2017-11-01T23:35:37.479Z,7.60
2017-11-01T23:40:35.215Z,7.50
2017-11-01T23:43:04.326Z,7.40
2017-11-01T23:45:33.447Z,7.20
2017-11-01T23:48:02.185Z,7.30
2017-11-01T23:50:30.616Z,7.30
2017-11-01T23:55:28.800Z,7.40
2017-11-01T23:57:57.696Z,7.40
